sensor_id;sensor_type;location;lat;lon;timestamp;P1;durP1;ratioP1;P2;durP2;ratioP2
7495;SDS011;3789;47.064;15.482;2023-11-19T00:02:05;5.97;;;4.73;;
7495;SDS011;3789;47.064;15.482;2023-11-19T00:04:38;4.77;;;4.20;;
7495;SDS011;3789;47.064;15.482;2023-11-19T00:07:07;6.17;;;4.60;;
7495;SDS011;3789;47.064;15.482;2023-11-19T00:09:48;9.20;;;5.50;;
7495;SDS011;3789;47.064;15.482;2023-11-19T00:12:18;6.30;;;4.80;;
7495;SDS011;3789;47.064;15.482;2023-11-19T00:14:57;6.40;;;4.93;;
7495;SDS011;3789;47.064;15.482;2023-11-19T00:17:26;5.93;;;4.90;;
7495;SDS011;3789;47.064;15.482;2023-11-19T00:20:00;6.67;;;4.93;;
7495;SDS011;3789;47.064;15.482;2023-11-19T00:22:35;7.37;;;4.73;;
7495;SDS011;3789;47.064;15.482;2023-11-19T00:25:19;6.23;;;5.13;;
7495;SDS011;3789;47.064;15.482;2023-11-19T00:28:01;6.00;;;4.60;;
7495;SDS011;3789;47.064;15.482;2023-11-19T00:30:30;7.27;;;4.43;;
7495;SDS011;3789;47.064;15.482;2023-11-19T00:32:59;6.43;;;5.03;;
7495;SDS011;3789;47.064;15.482;2023-11-19T00:35:32;7.67;;;4.43;;
7495;SDS011;3789;47.064;15.482;2023-11-19T00:38:02;6.97;;;5.10;;
7495;SDS011;3789;47.064;15.482;2023-11-19T00:40:41;5.13;;;4.60;;
7495;SDS011;3789;47.064;15.482;2023-11-19T00:43:18;3.10;;;2.80;;
7495;SDS011;3789;47.064;15.482;2023-11-19T00:45:52;4.70;;;4.17;;
7495;SDS011;3789;47.064;15.482;2023-11-19T00:48:25;8.60;;;5.10;;
7495;SDS011;3789;47.064;15.482;2023-11-19T00:50:56;7.47;;;5.23;;
7495;SDS011;3789;47.064;15.482;2023-11-19T00:53:24;6.20;;;5.37;;
7495;SDS011;3789;47.064;15.482;2023-11-19T00:56:02;5.83;;;4.57;;
7495;SDS011;3789;47.064;15.482;2023-11-19T00:58:33;6.23;;;4.90;;
7495;SDS011;3789;47.064;15.482;2023-11-19T01:01:09;6.00;;;5.00;;
7495;SDS011;3789;47.064;15.482;2023-11-19T01:03:38;6.23;;;5.33;;
7495;SDS011;3789;47.064;15.482;2023-11-19T01:08:59;6.50;;;5.00;;
7495;SDS011;3789;47.064;15.482;2023-11-19T01:11:29;6.00;;;5.00;;
7495;SDS011;3789;47.064;15.482;2023-11-19T01:13:58;6.23;;;4.30;;
7495;SDS011;3789;47.064;15.482;2023-11-19T01:16:27;7.57;;;5.10;;
7495;SDS011;3789;47.064;15.482;2023-11-19T01:18:59;6.70;;;4.90;;
7495;SDS011;3789;47.064;15.482;2023-11-19T01:21:44;7.27;;;4.50;;
7495;SDS011;3789;47.064;15.482;2023-11-19T01:24:22;6.50;;;4.33;;
7495;SDS011;3789;47.064;15.482;2023-11-19T01:26:57;5.07;;;4.00;;
7495;SDS011;3789;47.064;15.482;2023-11-19T01:29:34;6.70;;;5.37;;
7495;SDS011;3789;47.064;15.482;2023-11-19T01:32:06;7.33;;;4.80;;
7495;SDS011;3789;47.064;15.482;2023-11-19T01:34:41;7.97;;;5.80;;
7495;SDS011;3789;47.064;15.482;2023-11-19T01:37:10;6.13;;;4.03;;
7495;SDS011;3789;47.064;15.482;2023-11-19T01:39:46;7.27;;;4.90;;
7495;SDS011;3789;47.064;15.482;2023-11-19T01:42:21;5.77;;;4.70;;
7495;SDS011;3789;47.064;15.482;2023-11-19T01:44:57;6.50;;;4.83;;
7495;SDS011;3789;47.064;15.482;2023-11-19T01:47:41;7.90;;;4.47;;
7495;SDS011;3789;47.064;15.482;2023-11-19T01:50:11;6.33;;;4.63;;
7495;SDS011;3789;47.064;15.482;2023-11-19T01:52:53;5.93;;;4.40;;
7495;SDS011;3789;47.064;15.482;2023-11-19T01:55:27;7.13;;;4.53;;
7495;SDS011;3789;47.064;15.482;2023-11-19T01:58:06;6.30;;;4.70;;
7495;SDS011;3789;47.064;15.482;2023-11-19T02:00:44;5.90;;;4.40;;
7495;SDS011;3789;47.064;15.482;2023-11-19T02:03:14;8.57;;;5.60;;
7495;SDS011;3789;47.064;15.482;2023-11-19T02:05:45;5.83;;;4.30;;
7495;SDS011;3789;47.064;15.482;2023-11-19T02:08:19;6.10;;;4.70;;
7495;SDS011;3789;47.064;15.482;2023-11-19T02:10:50;7.17;;;5.07;;
7495;SDS011;3789;47.064;15.482;2023-11-19T02:13:23;6.33;;;4.93;;
7495;SDS011;3789;47.064;15.482;2023-11-19T02:16:00;6.00;;;4.77;;
7495;SDS011;3789;47.064;15.482;2023-11-19T02:18:34;7.30;;;5.13;;
7495;SDS011;3789;47.064;15.482;2023-11-19T02:21:12;6.90;;;4.50;;
7495;SDS011;3789;47.064;15.482;2023-11-19T02:23:41;5.50;;;4.10;;
7495;SDS011;3789;47.064;15.482;2023-11-19T02:29:15;5.80;;;4.30;;
7495;SDS011;3789;47.064;15.482;2023-11-19T02:31:45;6.93;;;4.73;;
7495;SDS011;3789;47.064;15.482;2023-11-19T02:34:17;6.03;;;4.50;;
7495;SDS011;3789;47.064;15.482;2023-11-19T02:36:45;5.87;;;4.40;;
7495;SDS011;3789;47.064;15.482;2023-11-19T02:39:15;7.43;;;5.37;;
7495;SDS011;3789;47.064;15.482;2023-11-19T02:41:48;5.73;;;4.80;;
7495;SDS011;3789;47.064;15.482;2023-11-19T02:44:20;6.70;;;5.27;;
7495;SDS011;3789;47.064;15.482;2023-11-19T02:46:50;5.53;;;4.43;;
7495;SDS011;3789;47.064;15.482;2023-11-19T02:49:20;7.33;;;4.63;;
7495;SDS011;3789;47.064;15.482;2023-11-19T02:51:57;7.27;;;4.67;;
7495;SDS011;3789;47.064;15.482;2023-11-19T02:54:33;8.03;;;5.93;;
7495;SDS011;3789;47.064;15.482;2023-11-19T02:57:10;6.17;;;5.33;;
7495;SDS011;3789;47.064;15.482;2023-11-19T02:59:43;6.73;;;4.97;;
7495;SDS011;3789;47.064;15.482;2023-11-19T03:02:12;7.33;;;5.40;;
7495;SDS011;3789;47.064;15.482;2023-11-19T03:04:44;8.13;;;5.60;;
7495;SDS011;3789;47.064;15.482;2023-11-19T03:07:15;5.90;;;4.93;;
7495;SDS011;3789;47.064;15.482;2023-11-19T03:09:48;6.97;;;5.47;;
7495;SDS011;3789;47.064;15.482;2023-11-19T03:12:27;7.20;;;5.37;;
7495;SDS011;3789;47.064;15.482;2023-11-19T03:14:56;7.70;;;5.03;;
7495;SDS011;3789;47.064;15.482;2023-11-19T03:17:26;5.47;;;4.87;;
7495;SDS011;3789;47.064;15.482;2023-11-19T03:20:04;5.47;;;4.90;;
7495;SDS011;3789;47.064;15.482;2023-11-19T03:22:44;6.90;;;5.43;;
7495;SDS011;3789;47.064;15.482;2023-11-19T03:25:20;8.57;;;5.80;;
7495;SDS011;3789;47.064;15.482;2023-11-19T03:27:57;5.97;;;5.10;;
7495;SDS011;3789;47.064;15.482;2023-11-19T03:30:30;9.13;;;5.60;;
7495;SDS011;3789;47.064;15.482;2023-11-19T03:33:03;8.00;;;5.40;;
7495;SDS011;3789;47.064;15.482;2023-11-19T03:35:46;6.40;;;5.37;;
7495;SDS011;3789;47.064;15.482;2023-11-19T03:38:16;9.17;;;5.87;;
7495;SDS011;3789;47.064;15.482;2023-11-19T03:40:44;6.83;;;5.53;;
7495;SDS011;3789;47.064;15.482;2023-11-19T03:43:14;10.30;;;6.00;;
7495;SDS011;3789;47.064;15.482;2023-11-19T03:45:44;8.63;;;5.80;;
7495;SDS011;3789;47.064;15.482;2023-11-19T03:48:15;8.80;;;5.63;;
7495;SDS011;3789;47.064;15.482;2023-11-19T03:50:46;7.87;;;5.47;;
7495;SDS011;3789;47.064;15.482;2023-11-19T03:53:19;7.70;;;5.57;;
7495;SDS011;3789;47.064;15.482;2023-11-19T03:55:49;8.53;;;6.07;;
7495;SDS011;3789;47.064;15.482;2023-11-19T03:58:27;8.53;;;6.17;;
7495;SDS011;3789;47.064;15.482;2023-11-19T04:00:59;9.47;;;6.07;;
7495;SDS011;3789;47.064;15.482;2023-11-19T04:03:31;7.50;;;5.40;;
7495;SDS011;3789;47.064;15.482;2023-11-19T04:06:02;8.77;;;5.73;;
7495;SDS011;3789;47.064;15.482;2023-11-19T04:08:32;10.87;;;5.63;;
7495;SDS011;3789;47.064;15.482;2023-11-19T04:11:04;8.67;;;5.33;;
7495;SDS011;3789;47.064;15.482;2023-11-19T04:13:39;7.13;;;5.23;;
7495;SDS011;3789;47.064;15.482;2023-11-19T04:16:08;6.50;;;5.43;;
7495;SDS011;3789;47.064;15.482;2023-11-19T04:18:38;7.73;;;5.90;;
7495;SDS011;3789;47.064;15.482;2023-11-19T04:21:09;9.57;;;5.93;;
7495;SDS011;3789;47.064;15.482;2023-11-19T04:23:40;8.33;;;5.37;;
7495;SDS011;3789;47.064;15.482;2023-11-19T04:26:18;8.63;;;5.57;;
7495;SDS011;3789;47.064;15.482;2023-11-19T04:28:48;7.77;;;5.93;;
7495;SDS011;3789;47.064;15.482;2023-11-19T04:31:19;7.83;;;6.30;;
7495;SDS011;3789;47.064;15.482;2023-11-19T04:33:49;9.43;;;6.17;;
7495;SDS011;3789;47.064;15.482;2023-11-19T04:36:21;8.33;;;5.90;;
7495;SDS011;3789;47.064;15.482;2023-11-19T04:39:04;8.07;;;6.00;;
7495;SDS011;3789;47.064;15.482;2023-11-19T04:41:52;7.73;;;6.23;;
7495;SDS011;3789;47.064;15.482;2023-11-19T04:44:23;7.03;;;5.50;;
7495;SDS011;3789;47.064;15.482;2023-11-19T04:46:52;6.93;;;5.57;;
7495;SDS011;3789;47.064;15.482;2023-11-19T04:49:23;10.97;;;6.17;;
7495;SDS011;3789;47.064;15.482;2023-11-19T04:51:54;9.30;;;6.10;;
7495;SDS011;3789;47.064;15.482;2023-11-19T04:54:23;9.03;;;6.43;;
7495;SDS011;3789;47.064;15.482;2023-11-19T04:56:54;8.27;;;5.90;;
7495;SDS011;3789;47.064;15.482;2023-11-19T04:59:25;9.83;;;6.23;;
7495;SDS011;3789;47.064;15.482;2023-11-19T05:01:57;5.93;;;5.10;;
7495;SDS011;3789;47.064;15.482;2023-11-19T05:04:33;7.73;;;5.77;;
7495;SDS011;3789;47.064;15.482;2023-11-19T05:07:01;8.47;;;6.00;;
7495;SDS011;3789;47.064;15.482;2023-11-19T05:09:32;7.40;;;5.73;;
7495;SDS011;3789;47.064;15.482;2023-11-19T05:12:03;7.20;;;5.57;;
7495;SDS011;3789;47.064;15.482;2023-11-19T05:14:39;8.93;;;5.50;;
7495;SDS011;3789;47.064;15.482;2023-11-19T05:17:19;8.67;;;5.97;;
7495;SDS011;3789;47.064;15.482;2023-11-19T05:19:52;7.60;;;5.60;;
7495;SDS011;3789;47.064;15.482;2023-11-19T05:22:22;6.93;;;5.40;;
7495;SDS011;3789;47.064;15.482;2023-11-19T05:25:02;9.70;;;6.00;;
7495;SDS011;3789;47.064;15.482;2023-11-19T05:27:33;6.93;;;5.60;;
7495;SDS011;3789;47.064;15.482;2023-11-19T05:30:21;8.10;;;5.77;;
7495;SDS011;3789;47.064;15.482;2023-11-19T05:32:52;10.20;;;5.50;;
7495;SDS011;3789;47.064;15.482;2023-11-19T05:35:34;9.97;;;5.60;;
7495;SDS011;3789;47.064;15.482;2023-11-19T05:38:06;7.33;;;5.60;;
7495;SDS011;3789;47.064;15.482;2023-11-19T05:40:33;8.20;;;5.50;;
7495;SDS011;3789;47.064;15.482;2023-11-19T05:43:04;8.23;;;5.90;;
7495;SDS011;3789;47.064;15.482;2023-11-19T05:45:36;7.57;;;5.40;;
7495;SDS011;3789;47.064;15.482;2023-11-19T05:48:05;8.37;;;6.13;;
7495;SDS011;3789;47.064;15.482;2023-11-19T05:50:34;7.60;;;5.73;;
7495;SDS011;3789;47.064;15.482;2023-11-19T05:53:05;7.43;;;5.70;;
7495;SDS011;3789;47.064;15.482;2023-11-19T05:55:37;7.87;;;5.80;;
7495;SDS011;3789;47.064;15.482;2023-11-19T05:58:26;7.53;;;5.73;;
7495;SDS011;3789;47.064;15.482;2023-11-19T06:00:58;7.03;;;5.13;;
7495;SDS011;3789;47.064;15.482;2023-11-19T06:03:31;10.87;;;6.60;;
7495;SDS011;3789;47.064;15.482;2023-11-19T06:06:06;6.80;;;5.30;;
7495;SDS011;3789;47.064;15.482;2023-11-19T06:08:35;9.10;;;6.33;;
7495;SDS011;3789;47.064;15.482;2023-11-19T06:11:05;8.63;;;6.37;;
7495;SDS011;3789;47.064;15.482;2023-11-19T06:13:55;7.17;;;5.63;;
7495;SDS011;3789;47.064;15.482;2023-11-19T06:16:26;7.60;;;5.00;;
7495;SDS011;3789;47.064;15.482;2023-11-19T06:18:55;8.50;;;5.97;;
7495;SDS011;3789;47.064;15.482;2023-11-19T06:21:24;8.33;;;6.20;;
7495;SDS011;3789;47.064;15.482;2023-11-19T06:23:56;11.63;;;6.37;;
7495;SDS011;3789;47.064;15.482;2023-11-19T06:26:27;7.77;;;5.37;;
7495;SDS011;3789;47.064;15.482;2023-11-19T06:29:04;8.27;;;5.67;;
7495;SDS011;3789;47.064;15.482;2023-11-19T06:31:34;6.77;;;5.10;;
7495;SDS011;3789;47.064;15.482;2023-11-19T06:34:10;8.10;;;5.90;;
7495;SDS011;3789;47.064;15.482;2023-11-19T06:36:49;7.60;;;5.53;;
7495;SDS011;3789;47.064;15.482;2023-11-19T06:39:18;5.20;;;4.70;;
7495;SDS011;3789;47.064;15.482;2023-11-19T06:41:50;7.53;;;5.50;;
7495;SDS011;3789;47.064;15.482;2023-11-19T06:44:22;8.93;;;5.23;;
7495;SDS011;3789;47.064;15.482;2023-11-19T06:46:53;7.17;;;5.17;;
7495;SDS011;3789;47.064;15.482;2023-11-19T06:49:25;6.77;;;5.23;;
7495;SDS011;3789;47.064;15.482;2023-11-19T06:51:57;7.83;;;5.40;;
7495;SDS011;3789;47.064;15.482;2023-11-19T06:54:30;6.70;;;5.03;;
7495;SDS011;3789;47.064;15.482;2023-11-19T06:57:01;6.47;;;5.23;;
7495;SDS011;3789;47.064;15.482;2023-11-19T06:59:32;7.53;;;5.40;;
7495;SDS011;3789;47.064;15.482;2023-11-19T07:02:02;6.60;;;4.87;;
7495;SDS011;3789;47.064;15.482;2023-11-19T07:04:36;7.63;;;5.07;;
7495;SDS011;3789;47.064;15.482;2023-11-19T07:07:06;6.17;;;5.10;;
7495;SDS011;3789;47.064;15.482;2023-11-19T07:09:37;7.63;;;5.00;;
7495;SDS011;3789;47.064;15.482;2023-11-19T07:12:14;8.67;;;5.93;;
7495;SDS011;3789;47.064;15.482;2023-11-19T07:14:48;7.17;;;5.33;;
7495;SDS011;3789;47.064;15.482;2023-11-19T07:17:18;7.20;;;5.63;;
7495;SDS011;3789;47.064;15.482;2023-11-19T07:19:49;8.60;;;5.23;;
7495;SDS011;3789;47.064;15.482;2023-11-19T07:22:26;7.83;;;5.17;;
7495;SDS011;3789;47.064;15.482;2023-11-19T07:25:00;7.93;;;5.50;;
7495;SDS011;3789;47.064;15.482;2023-11-19T07:27:29;6.87;;;4.87;;
7495;SDS011;3789;47.064;15.482;2023-11-19T07:29:58;6.23;;;4.87;;
7495;SDS011;3789;47.064;15.482;2023-11-19T07:32:36;6.87;;;5.33;;
7495;SDS011;3789;47.064;15.482;2023-11-19T07:35:06;7.80;;;6.47;;
7495;SDS011;3789;47.064;15.482;2023-11-19T07:37:37;9.03;;;6.97;;
7495;SDS011;3789;47.064;15.482;2023-11-19T07:40:09;11.27;;;7.60;;
7495;SDS011;3789;47.064;15.482;2023-11-19T07:42:39;10.63;;;6.60;;
7495;SDS011;3789;47.064;15.482;2023-11-19T07:45:07;11.07;;;7.70;;
7495;SDS011;3789;47.064;15.482;2023-11-19T07:47:45;9.07;;;6.53;;
7495;SDS011;3789;47.064;15.482;2023-11-19T07:50:15;9.37;;;6.63;;
7495;SDS011;3789;47.064;15.482;2023-11-19T07:52:49;8.70;;;6.90;;
7495;SDS011;3789;47.064;15.482;2023-11-19T07:55:20;9.10;;;6.63;;
7495;SDS011;3789;47.064;15.482;2023-11-19T07:57:49;10.17;;;7.00;;
7495;SDS011;3789;47.064;15.482;2023-11-19T08:00:21;10.60;;;7.30;;
7495;SDS011;3789;47.064;15.482;2023-11-19T08:02:51;8.47;;;6.20;;
7495;SDS011;3789;47.064;15.482;2023-11-19T08:05:23;7.43;;;5.93;;
7495;SDS011;3789;47.064;15.482;2023-11-19T08:08:03;9.13;;;6.60;;
7495;SDS011;3789;47.064;15.482;2023-11-19T08:10:45;8.27;;;5.97;;
7495;SDS011;3789;47.064;15.482;2023-11-19T08:13:16;9.40;;;6.43;;
7495;SDS011;3789;47.064;15.482;2023-11-19T08:15:47;8.03;;;6.33;;
7495;SDS011;3789;47.064;15.482;2023-11-19T08:18:24;8.33;;;6.43;;
7495;SDS011;3789;47.064;15.482;2023-11-19T08:20:51;8.10;;;6.17;;
7495;SDS011;3789;47.064;15.482;2023-11-19T08:23:22;8.73;;;5.90;;
7495;SDS011;3789;47.064;15.482;2023-11-19T08:25:56;9.60;;;6.70;;
7495;SDS011;3789;47.064;15.482;2023-11-19T08:28:24;9.77;;;6.77;;
7495;SDS011;3789;47.064;15.482;2023-11-19T08:31:10;9.80;;;6.20;;
7495;SDS011;3789;47.064;15.482;2023-11-19T08:33:39;8.90;;;6.17;;
7495;SDS011;3789;47.064;15.482;2023-11-19T08:36:14;9.67;;;6.50;;
7495;SDS011;3789;47.064;15.482;2023-11-19T08:38:46;11.93;;;6.67;;
7495;SDS011;3789;47.064;15.482;2023-11-19T08:41:20;9.03;;;6.60;;
7495;SDS011;3789;47.064;15.482;2023-11-19T08:43:52;10.03;;;6.57;;
7495;SDS011;3789;47.064;15.482;2023-11-19T08:46:32;10.43;;;6.83;;
7495;SDS011;3789;47.064;15.482;2023-11-19T08:49:02;10.93;;;6.90;;
7495;SDS011;3789;47.064;15.482;2023-11-19T08:51:32;8.67;;;6.53;;
7495;SDS011;3789;47.064;15.482;2023-11-19T08:54:00;9.30;;;6.63;;
7495;SDS011;3789;47.064;15.482;2023-11-19T08:56:30;10.07;;;6.10;;
7495;SDS011;3789;47.064;15.482;2023-11-19T08:59:07;6.93;;;5.30;;
7495;SDS011;3789;47.064;15.482;2023-11-19T09:01:45;8.20;;;6.07;;
7495;SDS011;3789;47.064;15.482;2023-11-19T09:04:20;9.37;;;6.30;;
7495;SDS011;3789;47.064;15.482;2023-11-19T09:06:52;9.23;;;6.87;;
7495;SDS011;3789;47.064;15.482;2023-11-19T09:09:20;9.67;;;6.67;;
7495;SDS011;3789;47.064;15.482;2023-11-19T09:11:57;7.87;;;6.00;;
7495;SDS011;3789;47.064;15.482;2023-11-19T09:14:27;8.43;;;6.03;;
7495;SDS011;3789;47.064;15.482;2023-11-19T09:16:56;8.10;;;6.20;;
7495;SDS011;3789;47.064;15.482;2023-11-19T09:19:27;6.50;;;5.13;;
7495;SDS011;3789;47.064;15.482;2023-11-19T09:22:02;8.23;;;5.97;;
7495;SDS011;3789;47.064;15.482;2023-11-19T09:24:31;7.53;;;5.50;;
7495;SDS011;3789;47.064;15.482;2023-11-19T09:27:01;7.30;;;5.80;;
7495;SDS011;3789;47.064;15.482;2023-11-19T09:29:32;8.07;;;6.27;;
7495;SDS011;3789;47.064;15.482;2023-11-19T09:32:04;8.27;;;5.77;;
7495;SDS011;3789;47.064;15.482;2023-11-19T09:34:36;7.13;;;6.30;;
7495;SDS011;3789;47.064;15.482;2023-11-19T09:37:05;7.87;;;5.67;;
7495;SDS011;3789;47.064;15.482;2023-11-19T09:39:57;7.47;;;5.60;;
7495;SDS011;3789;47.064;15.482;2023-11-19T09:42:25;6.53;;;5.00;;
7495;SDS011;3789;47.064;15.482;2023-11-19T09:45:04;7.43;;;5.53;;
7495;SDS011;3789;47.064;15.482;2023-11-19T09:47:44;7.60;;;5.80;;
7495;SDS011;3789;47.064;15.482;2023-11-19T09:50:16;7.50;;;5.30;;
7495;SDS011;3789;47.064;15.482;2023-11-19T09:52:47;7.90;;;5.63;;
7495;SDS011;3789;47.064;15.482;2023-11-19T09:55:17;6.27;;;5.30;;
7495;SDS011;3789;47.064;15.482;2023-11-19T09:57:53;7.37;;;4.90;;
7495;SDS011;3789;47.064;15.482;2023-11-19T10:00:22;6.63;;;5.60;;
7495;SDS011;3789;47.064;15.482;2023-11-19T10:02:52;8.67;;;5.50;;
7495;SDS011;3789;47.064;15.482;2023-11-19T10:05:29;7.37;;;5.27;;
7495;SDS011;3789;47.064;15.482;2023-11-19T10:08:01;6.07;;;5.17;;
7495;SDS011;3789;47.064;15.482;2023-11-19T10:10:34;7.27;;;5.20;;
7495;SDS011;3789;47.064;15.482;2023-11-19T10:13:05;5.87;;;4.80;;
7495;SDS011;3789;47.064;15.482;2023-11-19T10:15:39;8.07;;;5.40;;
7495;SDS011;3789;47.064;15.482;2023-11-19T10:18:16;6.73;;;4.63;;
7495;SDS011;3789;47.064;15.482;2023-11-19T10:20:46;5.20;;;4.63;;
7495;SDS011;3789;47.064;15.482;2023-11-19T10:23:17;8.17;;;5.27;;
7495;SDS011;3789;47.064;15.482;2023-11-19T10:26:02;7.23;;;5.23;;
7495;SDS011;3789;47.064;15.482;2023-11-19T10:28:40;6.37;;;5.13;;
7495;SDS011;3789;47.064;15.482;2023-11-19T10:31:13;5.37;;;4.70;;
7495;SDS011;3789;47.064;15.482;2023-11-19T10:33:55;6.40;;;4.70;;
7495;SDS011;3789;47.064;15.482;2023-11-19T10:36:37;7.00;;;4.73;;
7495;SDS011;3789;47.064;15.482;2023-11-19T10:39:10;5.23;;;4.30;;
7495;SDS011;3789;47.064;15.482;2023-11-19T10:41:43;6.07;;;4.80;;
7495;SDS011;3789;47.064;15.482;2023-11-19T10:44:23;5.23;;;4.57;;
7495;SDS011;3789;47.064;15.482;2023-11-19T10:47:06;7.13;;;4.37;;
7495;SDS011;3789;47.064;15.482;2023-11-19T10:49:38;7.13;;;4.80;;
7495;SDS011;3789;47.064;15.482;2023-11-19T10:52:17;5.20;;;4.70;;
7495;SDS011;3789;47.064;15.482;2023-11-19T10:54:50;6.70;;;4.60;;
7495;SDS011;3789;47.064;15.482;2023-11-19T10:57:22;5.33;;;4.80;;
7495;SDS011;3789;47.064;15.482;2023-11-19T11:00:01;5.63;;;4.30;;
7495;SDS011;3789;47.064;15.482;2023-11-19T11:02:40;7.47;;;5.17;;
7495;SDS011;3789;47.064;15.482;2023-11-19T11:05:12;4.90;;;4.40;;
7495;SDS011;3789;47.064;15.482;2023-11-19T11:07:52;6.00;;;5.00;;
7495;SDS011;3789;47.064;15.482;2023-11-19T11:10:27;6.80;;;4.73;;
7495;SDS011;3789;47.064;15.482;2023-11-19T11:13:24;5.13;;;4.63;;
7495;SDS011;3789;47.064;15.482;2023-11-19T11:15:58;5.20;;;4.60;;
7495;SDS011;3789;47.064;15.482;2023-11-19T11:18:28;5.93;;;4.83;;
7495;SDS011;3789;47.064;15.482;2023-11-19T11:21:04;5.80;;;4.60;;
7495;SDS011;3789;47.064;15.482;2023-11-19T11:29:48;4.60;;;4.03;;
7495;SDS011;3789;47.064;15.482;2023-11-19T11:32:45;5.23;;;4.53;;
7495;SDS011;3789;47.064;15.482;2023-11-19T11:35:48;6.23;;;5.27;;
7495;SDS011;3789;47.064;15.482;2023-11-19T11:38:49;5.93;;;4.50;;
7495;SDS011;3789;47.064;15.482;2023-11-19T11:41:22;6.03;;;4.80;;
7495;SDS011;3789;47.064;15.482;2023-11-19T11:43:59;9.33;;;5.07;;
7495;SDS011;3789;47.064;15.482;2023-11-19T11:49:25;4.97;;;4.47;;
7495;SDS011;3789;47.064;15.482;2023-11-19T11:51:59;5.67;;;4.57;;
7495;SDS011;3789;47.064;15.482;2023-11-19T11:54:32;6.10;;;5.50;;
7495;SDS011;3789;47.064;15.482;2023-11-19T11:57:12;5.70;;;4.87;;
7495;SDS011;3789;47.064;15.482;2023-11-19T11:59:47;7.87;;;4.90;;
7495;SDS011;3789;47.064;15.482;2023-11-19T12:02:20;6.53;;;4.77;;
7495;SDS011;3789;47.064;15.482;2023-11-19T12:04:55;6.30;;;4.50;;
7495;SDS011;3789;47.064;15.482;2023-11-19T12:07:33;5.00;;;4.37;;
7495;SDS011;3789;47.064;15.482;2023-11-19T12:10:07;6.50;;;4.60;;
7495;SDS011;3789;47.064;15.482;2023-11-19T12:12:44;6.03;;;4.63;;
7495;SDS011;3789;47.064;15.482;2023-11-19T12:15:32;6.47;;;4.50;;
7495;SDS011;3789;47.064;15.482;2023-11-19T12:18:29;5.97;;;5.07;;
7495;SDS011;3789;47.064;15.482;2023-11-19T12:21:03;5.37;;;4.47;;
7495;SDS011;3789;47.064;15.482;2023-11-19T12:23:35;6.87;;;4.87;;
7495;SDS011;3789;47.064;15.482;2023-11-19T12:26:50;6.40;;;4.67;;
7495;SDS011;3789;47.064;15.482;2023-11-19T12:29:14;5.73;;;4.47;;
7495;SDS011;3789;47.064;15.482;2023-11-19T12:31:53;6.93;;;4.97;;
7495;SDS011;3789;47.064;15.482;2023-11-19T12:34:41;5.60;;;4.53;;
7495;SDS011;3789;47.064;15.482;2023-11-19T12:37:11;4.87;;;4.37;;
7495;SDS011;3789;47.064;15.482;2023-11-19T12:39:40;7.27;;;5.50;;
7495;SDS011;3789;47.064;15.482;2023-11-19T12:42:10;7.60;;;4.90;;
7495;SDS011;3789;47.064;15.482;2023-11-19T12:44:56;5.77;;;4.87;;
7495;SDS011;3789;47.064;15.482;2023-11-19T12:47:25;6.03;;;5.00;;
7495;SDS011;3789;47.064;15.482;2023-11-19T12:49:59;6.67;;;4.67;;
7495;SDS011;3789;47.064;15.482;2023-11-19T12:52:30;5.93;;;4.87;;
7495;SDS011;3789;47.064;15.482;2023-11-19T12:54:58;5.67;;;4.80;;
7495;SDS011;3789;47.064;15.482;2023-11-19T12:57:39;6.17;;;4.93;;
7495;SDS011;3789;47.064;15.482;2023-11-19T13:00:28;6.13;;;4.50;;
7495;SDS011;3789;47.064;15.482;2023-11-19T13:02:58;6.70;;;5.03;;
7495;SDS011;3789;47.064;15.482;2023-11-19T13:05:33;6.90;;;4.70;;
7495;SDS011;3789;47.064;15.482;2023-11-19T13:08:06;7.10;;;5.23;;
7495;SDS011;3789;47.064;15.482;2023-11-19T13:10:51;5.23;;;4.60;;
7495;SDS011;3789;47.064;15.482;2023-11-19T13:13:23;6.43;;;4.70;;
7495;SDS011;3789;47.064;15.482;2023-11-19T13:15:50;7.13;;;4.80;;
7495;SDS011;3789;47.064;15.482;2023-11-19T13:18:20;6.03;;;5.03;;
7495;SDS011;3789;47.064;15.482;2023-11-19T13:21:10;6.13;;;4.70;;
7495;SDS011;3789;47.064;15.482;2023-11-19T13:23:38;5.63;;;4.87;;
7495;SDS011;3789;47.064;15.482;2023-11-19T13:26:08;5.77;;;4.70;;
7495;SDS011;3789;47.064;15.482;2023-11-19T13:28:43;6.07;;;4.60;;
7495;SDS011;3789;47.064;15.482;2023-11-19T13:31:12;5.50;;;4.33;;
7495;SDS011;3789;47.064;15.482;2023-11-19T13:33:41;4.90;;;4.37;;
7495;SDS011;3789;47.064;15.482;2023-11-19T13:36:11;4.37;;;3.90;;
7495;SDS011;3789;47.064;15.482;2023-11-19T13:38:43;6.20;;;4.10;;
7495;SDS011;3789;47.064;15.482;2023-11-19T13:41:12;4.63;;;3.93;;
7495;SDS011;3789;47.064;15.482;2023-11-19T13:43:40;5.17;;;3.97;;
7495;SDS011;3789;47.064;15.482;2023-11-19T13:46:08;5.30;;;3.70;;
7495;SDS011;3789;47.064;15.482;2023-11-19T13:48:40;4.40;;;3.60;;
7495;SDS011;3789;47.064;15.482;2023-11-19T13:51:13;5.47;;;3.83;;
7495;SDS011;3789;47.064;15.482;2023-11-19T13:53:44;4.40;;;4.00;;
7495;SDS011;3789;47.064;15.482;2023-11-19T13:56:17;5.83;;;4.00;;
7495;SDS011;3789;47.064;15.482;2023-11-19T13:58:50;4.83;;;3.67;;
7495;SDS011;3789;47.064;15.482;2023-11-19T14:01:21;5.43;;;3.40;;
7495;SDS011;3789;47.064;15.482;2023-11-19T14:03:53;3.93;;;3.47;;
7495;SDS011;3789;47.064;15.482;2023-11-19T14:06:27;4.73;;;3.67;;
7495;SDS011;3789;47.064;15.482;2023-11-19T14:08:57;4.27;;;3.50;;
7495;SDS011;3789;47.064;15.482;2023-11-19T14:11:28;4.47;;;3.70;;
7495;SDS011;3789;47.064;15.482;2023-11-19T14:13:58;5.00;;;3.97;;
7495;SDS011;3789;47.064;15.482;2023-11-19T14:16:36;5.23;;;3.63;;
7495;SDS011;3789;47.064;15.482;2023-11-19T14:19:18;4.40;;;3.53;;
7495;SDS011;3789;47.064;15.482;2023-11-19T14:21:48;3.70;;;3.30;;
7495;SDS011;3789;47.064;15.482;2023-11-19T14:24:23;4.40;;;3.30;;
7495;SDS011;3789;47.064;15.482;2023-11-19T14:26:56;3.17;;;2.87;;
7495;SDS011;3789;47.064;15.482;2023-11-19T14:29:28;4.17;;;3.23;;
7495;SDS011;3789;47.064;15.482;2023-11-19T14:32:00;4.17;;;3.43;;
7495;SDS011;3789;47.064;15.482;2023-11-19T14:34:32;4.87;;;3.97;;
7495;SDS011;3789;47.064;15.482;2023-11-19T14:37:03;3.50;;;3.20;;
7495;SDS011;3789;47.064;15.482;2023-11-19T14:39:40;4.27;;;3.53;;
7495;SDS011;3789;47.064;15.482;2023-11-19T14:42:26;4.53;;;3.37;;
7495;SDS011;3789;47.064;15.482;2023-11-19T14:44:55;5.30;;;3.60;;
7495;SDS011;3789;47.064;15.482;2023-11-19T14:47:27;4.37;;;3.43;;
7495;SDS011;3789;47.064;15.482;2023-11-19T14:49:58;4.37;;;3.20;;
7495;SDS011;3789;47.064;15.482;2023-11-19T14:52:26;4.27;;;3.43;;
7495;SDS011;3789;47.064;15.482;2023-11-19T14:54:57;3.43;;;3.13;;
7495;SDS011;3789;47.064;15.482;2023-11-19T14:57:26;6.87;;;4.50;;
7495;SDS011;3789;47.064;15.482;2023-11-19T14:59:55;4.80;;;3.77;;
7495;SDS011;3789;47.064;15.482;2023-11-19T15:02:24;5.57;;;4.07;;
7495;SDS011;3789;47.064;15.482;2023-11-19T15:05:01;5.43;;;4.20;;
7495;SDS011;3789;47.064;15.482;2023-11-19T15:07:31;6.40;;;4.23;;
7495;SDS011;3789;47.064;15.482;2023-11-19T15:09:59;13.13;;;6.23;;
7495;SDS011;3789;47.064;15.482;2023-11-19T15:12:30;12.33;;;7.07;;
7495;SDS011;3789;47.064;15.482;2023-11-19T15:15:00;10.37;;;7.10;;
7495;SDS011;3789;47.064;15.482;2023-11-19T15:17:38;9.10;;;6.73;;
7495;SDS011;3789;47.064;15.482;2023-11-19T15:20:07;9.03;;;6.87;;
7495;SDS011;3789;47.064;15.482;2023-11-19T15:22:37;5.80;;;4.40;;
7495;SDS011;3789;47.064;15.482;2023-11-19T15:25:08;5.30;;;4.10;;
7495;SDS011;3789;47.064;15.482;2023-11-19T15:27:38;4.87;;;3.77;;
7495;SDS011;3789;47.064;15.482;2023-11-19T15:30:12;4.70;;;3.77;;
7495;SDS011;3789;47.064;15.482;2023-11-19T15:32:43;5.27;;;3.50;;
7495;SDS011;3789;47.064;15.482;2023-11-19T15:35:12;8.43;;;5.77;;
7495;SDS011;3789;47.064;15.482;2023-11-19T15:37:42;12.50;;;8.57;;
7495;SDS011;3789;47.064;15.482;2023-11-19T15:40:15;10.23;;;6.73;;
7495;SDS011;3789;47.064;15.482;2023-11-19T15:42:46;9.40;;;5.83;;
7495;SDS011;3789;47.064;15.482;2023-11-19T15:45:15;7.73;;;5.10;;
7495;SDS011;3789;47.064;15.482;2023-11-19T15:47:45;7.57;;;4.77;;
7495;SDS011;3789;47.064;15.482;2023-11-19T15:50:17;5.50;;;4.23;;
7495;SDS011;3789;47.064;15.482;2023-11-19T15:52:56;4.60;;;3.60;;
7495;SDS011;3789;47.064;15.482;2023-11-19T15:55:32;5.57;;;4.30;;